createdAt,value
2018-12-06T00:01:08.876Z,14.53
2018-12-06T00:03:45.160Z,11.33
2018-12-06T00:06:16.262Z,13.53
2018-12-06T00:08:46.482Z,14.60
2018-12-06T00:11:17.693Z,15.50
2018-12-06T00:13:48.669Z,16.70
2018-12-06T00:16:18.688Z,13.03
2018-12-06T00:19:07.873Z,15.17
2018-12-06T00:21:39.245Z,12.97
2018-12-06T00:24:10.341Z,11.67
2018-12-06T00:26:40.342Z,16.47
2018-12-06T00:29:10.331Z,14.70
2018-12-06T00:31:40.366Z,12.47
2018-12-06T00:34:11.533Z,17.83
2018-12-06T00:36:42.560Z,14.33
2018-12-06T00:39:12.439Z,16.30
2018-12-06T00:41:43.816Z,17.60
2018-12-06T00:44:13.785Z,12.83
2018-12-06T00:46:43.849Z,12.77
2018-12-06T00:49:13.827Z,15.70
2018-12-06T00:51:44.835Z,18.43
2018-12-06T00:54:14.883Z,16.37
2018-12-06T00:56:44.897Z,17.20
2018-12-06T00:59:15.979Z,14.50
2018-12-06T01:01:45.975Z,16.73
2018-12-06T01:04:16.021Z,20.93
2018-12-06T01:06:47.180Z,17.20
2018-12-06T01:09:17.248Z,19.50
2018-12-06T01:11:47.100Z,17.30
2018-12-06T01:14:17.135Z,21.47
2018-12-06T01:16:47.151Z,18.00
2018-12-06T01:19:17.153Z,18.37
2018-12-06T01:21:47.189Z,15.43
2018-12-06T01:24:17.426Z,25.10
2018-12-06T01:26:47.411Z,15.50
2018-12-06T01:29:17.456Z,22.83
2018-12-06T01:31:47.493Z,21.30
2018-12-06T01:34:17.507Z,21.53
2018-12-06T01:36:47.698Z,17.73
2018-12-06T01:39:17.703Z,21.97
2018-12-06T01:41:48.059Z,23.60
2018-12-06T01:44:18.057Z,20.70
2018-12-06T01:46:48.066Z,17.83
2018-12-06T01:49:18.057Z,22.47
2018-12-06T01:51:49.186Z,20.87
2018-12-06T01:54:19.216Z,20.73
2018-12-06T01:56:49.325Z,18.57
2018-12-06T01:59:19.321Z,22.53
2018-12-06T02:01:49.353Z,17.83
2018-12-06T02:04:20.035Z,19.83
2018-12-06T02:06:50.227Z,26.50
2018-12-06T02:09:20.253Z,17.77
2018-12-06T02:11:50.271Z,20.77
2018-12-06T02:14:20.290Z,23.53
2018-12-06T02:16:50.481Z,27.27
2018-12-06T02:19:20.479Z,25.87
2018-12-06T02:21:50.557Z,21.00
2018-12-06T02:24:20.472Z,24.50
2018-12-06T02:26:50.720Z,22.80
2018-12-06T02:29:20.855Z,23.13
2018-12-06T02:31:52.579Z,21.23
2018-12-06T02:34:22.601Z,23.80
2018-12-06T02:36:52.621Z,21.73
2018-12-06T02:39:22.821Z,20.80
2018-12-06T02:41:52.819Z,20.70
2018-12-06T02:44:24.069Z,24.43
2018-12-06T02:46:54.028Z,22.67
2018-12-06T02:49:23.994Z,20.83
2018-12-06T02:51:54.010Z,21.73
2018-12-06T02:54:24.078Z,22.77
2018-12-06T02:56:54.121Z,27.37
2018-12-06T02:59:24.214Z,23.23
2018-12-06T03:01:54.362Z,26.87
2018-12-06T03:04:24.414Z,22.10
2018-12-06T03:06:54.418Z,26.57
2018-12-06T03:09:24.370Z,26.13
2018-12-06T03:11:54.363Z,27.73
2018-12-06T03:14:24.449Z,30.97
2018-12-06T03:16:54.409Z,27.37
2018-12-06T03:19:24.478Z,27.13
2018-12-06T03:21:54.513Z,25.87
2018-12-06T03:24:24.447Z,25.60
2018-12-06T03:26:54.472Z,25.70
2018-12-06T03:29:24.476Z,28.27
2018-12-06T03:31:54.353Z,24.57
2018-12-06T03:34:24.382Z,24.77
2018-12-06T03:36:54.371Z,26.83
2018-12-06T03:39:24.390Z,26.70
2018-12-06T03:41:54.371Z,25.13
2018-12-06T03:44:24.427Z,29.97
2018-12-06T03:46:54.334Z,22.73
2018-12-06T03:49:24.341Z,24.80
2018-12-06T03:51:59.014Z,27.57
2018-12-06T03:54:29.004Z,27.90
2018-12-06T03:56:59.060Z,26.90
2018-12-06T03:59:29.145Z,22.70
2018-12-06T04:01:59.282Z,28.87
2018-12-06T04:04:29.336Z,24.10
2018-12-06T04:06:59.233Z,24.27
2018-12-06T04:09:29.627Z,25.03
2018-12-06T04:11:59.649Z,27.60
2018-12-06T04:14:29.640Z,24.73
2018-12-06T04:16:59.603Z,30.27
2018-12-06T04:19:29.654Z,27.10
2018-12-06T04:21:59.676Z,30.10
2018-12-06T04:24:29.729Z,30.37
2018-12-06T04:26:59.840Z,24.87
2018-12-06T04:29:29.686Z,25.23
2018-12-06T04:31:59.704Z,31.07
2018-12-06T04:34:29.902Z,30.30
2018-12-06T04:36:59.937Z,31.73
2018-12-06T04:39:29.850Z,27.33
2018-12-06T04:41:59.802Z,25.90
2018-12-06T04:44:29.886Z,27.37
2018-12-06T04:46:59.887Z,30.00
2018-12-06T04:49:30.015Z,30.40
2018-12-06T04:52:00.127Z,35.60
2018-12-06T04:54:30.163Z,30.73
2018-12-06T04:57:00.130Z,27.10
2018-12-06T04:59:30.293Z,32.40
2018-12-06T05:02:00.243Z,27.40
2018-12-06T05:04:30.267Z,31.57
2018-12-06T05:07:00.384Z,27.87
2018-12-06T05:09:31.521Z,33.37
2018-12-06T05:12:11.762Z,36.53
2018-12-06T05:14:45.840Z,31.47
2018-12-06T05:17:22.146Z,33.67
2018-12-06T05:19:59.708Z,31.60
2018-12-06T05:22:33.450Z,31.60
2018-12-06T05:25:09.443Z,35.50
2018-12-06T05:27:43.399Z,33.30
2018-12-06T05:30:20.053Z,31.37
2018-12-06T05:32:56.266Z,32.30
2018-12-06T05:35:31.708Z,32.83
2018-12-06T05:38:07.999Z,33.23
2018-12-06T05:40:41.706Z,36.77
2018-12-06T05:43:18.355Z,40.30
2018-12-06T05:45:54.083Z,36.53
2018-12-06T05:48:31.285Z,36.40
2018-12-06T05:51:07.144Z,34.93
2018-12-06T05:53:43.541Z,31.93
2018-12-06T05:56:17.308Z,35.03
2018-12-06T05:58:53.269Z,37.30
2018-12-06T06:01:29.519Z,35.70
2018-12-06T06:04:09.670Z,33.00
2018-12-06T06:06:45.892Z,33.80
2018-12-06T06:09:21.824Z,34.47
2018-12-06T06:11:56.787Z,33.57
2018-12-06T06:14:33.225Z,34.60
2018-12-06T06:17:07.033Z,36.10
2018-12-06T06:19:42.806Z,36.63
2018-12-06T06:22:15.897Z,43.07
2018-12-06T06:24:55.658Z,39.90
2018-12-06T06:27:40.275Z,39.53
2018-12-06T06:30:20.271Z,40.03
2018-12-06T06:32:56.694Z,43.60
2018-12-06T06:35:30.506Z,42.20
2018-12-06T06:38:03.985Z,39.13
2018-12-06T06:40:39.752Z,45.97
2018-12-06T06:43:16.807Z,42.30
2018-12-06T06:45:50.427Z,43.30
2018-12-06T06:48:26.385Z,43.03
2018-12-06T06:51:00.382Z,40.90
2018-12-06T06:53:36.199Z,39.30
2018-12-06T06:56:12.531Z,44.03
2018-12-06T06:58:48.783Z,40.33
2018-12-06T07:01:28.835Z,41.53
2018-12-06T07:04:05.221Z,41.03
2018-12-06T07:06:41.778Z,43.23
2018-12-06T07:09:23.682Z,41.17
2018-12-06T07:11:59.469Z,44.23
2018-12-06T07:14:34.847Z,45.73
2018-12-06T07:17:08.821Z,41.53
2018-12-06T07:19:51.429Z,40.50
2018-12-06T07:22:27.283Z,43.73
2018-12-06T07:25:09.687Z,46.60
2018-12-06T07:27:43.382Z,43.13
2018-12-06T07:30:25.141Z,45.97
2018-12-06T07:32:58.617Z,43.13
2018-12-06T07:35:34.454Z,50.23
2018-12-06T07:38:10.992Z,45.53
2018-12-06T07:40:55.166Z,44.47
2018-12-06T07:43:33.058Z,48.80
2018-12-06T07:46:11.186Z,53.73
2018-12-06T07:51:48.082Z,49.13
2018-12-06T07:54:21.702Z,55.97
2018-12-06T07:56:58.048Z,52.57
2018-12-06T07:59:31.578Z,50.77
2018-12-06T08:02:04.808Z,52.97
2018-12-06T08:04:41.061Z,49.57
2018-12-06T08:07:12.827Z,52.47
2018-12-06T08:09:49.156Z,55.50
2018-12-06T08:12:25.076Z,64.77
2018-12-06T08:15:07.565Z,52.33
2018-12-06T08:17:44.270Z,56.37
2018-12-06T08:20:20.156Z,57.07
2018-12-06T08:23:02.367Z,59.37
2018-12-06T08:25:38.380Z,59.57
2018-12-06T08:28:14.432Z,65.33
2018-12-06T08:30:49.707Z,65.97
2018-12-06T08:33:28.861Z,71.50
2018-12-06T08:36:03.521Z,61.30
2018-12-06T08:38:47.187Z,58.47
2018-12-06T08:41:25.024Z,64.83
2018-12-06T08:44:06.556Z,56.47
2018-12-06T08:49:50.209Z,65.27
2018-12-06T08:52:24.814Z,62.37
2018-12-06T08:55:01.347Z,62.23
2018-12-06T08:57:37.043Z,69.37
2018-12-06T09:00:13.653Z,64.83
2018-12-06T09:02:47.946Z,65.83
2018-12-06T09:05:24.044Z,58.67
2018-12-06T09:07:58.114Z,61.93
2018-12-06T09:10:34.003Z,57.63
2018-12-06T09:13:08.599Z,66.67
2018-12-06T09:15:44.127Z,63.83
2018-12-06T09:18:18.004Z,60.87
2018-12-06T09:20:51.191Z,61.70
2018-12-06T09:23:40.163Z,62.17
2018-12-06T09:26:10.012Z,71.03
2018-12-06T09:28:40.014Z,65.47
2018-12-06T09:31:09.999Z,65.83
2018-12-06T09:33:51.324Z,66.40
2018-12-06T09:36:21.378Z,64.67
2018-12-06T09:38:51.430Z,66.83
2018-12-06T09:41:21.442Z,66.70
2018-12-06T09:43:51.714Z,65.00
2018-12-06T09:46:22.068Z,62.73
2018-12-06T09:48:52.560Z,62.63
2018-12-06T09:51:22.628Z,61.07
2018-12-06T09:53:52.876Z,67.07
2018-12-06T09:56:24.600Z,71.17
2018-12-06T09:58:54.897Z,57.10
2018-12-06T10:01:24.879Z,65.37
2018-12-06T10:03:54.836Z,64.33
2018-12-06T10:06:24.856Z,61.13
2018-12-06T10:08:54.882Z,56.30
2018-12-06T10:11:24.924Z,66.13
2018-12-06T10:13:54.907Z,66.47
2018-12-06T10:16:24.931Z,65.27
2018-12-06T10:18:55.068Z,68.67
2018-12-06T10:21:25.131Z,73.53
2018-12-06T10:23:55.170Z,73.00
2018-12-06T10:26:25.126Z,78.47
2018-12-06T10:28:54.993Z,76.40
2018-12-06T10:31:24.999Z,78.03
2018-12-06T10:33:55.160Z,76.87
2018-12-06T10:36:25.038Z,71.03
2018-12-06T10:38:55.201Z,74.83
2018-12-06T10:41:25.165Z,83.47
2018-12-06T10:43:55.203Z,89.23
2018-12-06T10:46:25.228Z,89.93
2018-12-06T10:48:55.251Z,87.17
2018-12-06T10:51:41.468Z,89.33
2018-12-06T10:54:11.563Z,96.13
2018-12-06T10:56:41.615Z,96.33
2018-12-06T10:59:11.728Z,83.83
2018-12-06T11:01:52.276Z,96.73
2018-12-06T11:04:24.396Z,86.93
2018-12-06T11:06:54.434Z,91.73
2018-12-06T11:09:24.497Z,91.13
2018-12-06T11:11:54.541Z,98.00
2018-12-06T11:14:24.564Z,90.40
2018-12-06T11:16:54.612Z,94.97
2018-12-06T11:19:24.925Z,95.13
2018-12-06T11:21:55.030Z,92.57
2018-12-06T11:24:25.061Z,93.73
2018-12-06T11:26:55.069Z,87.30
2018-12-06T11:29:24.993Z,87.43
2018-12-06T11:31:55.159Z,85.90
2018-12-06T11:34:25.246Z,79.50
2018-12-06T11:36:55.304Z,83.07
2018-12-06T11:39:25.303Z,83.13
2018-12-06T11:41:55.340Z,74.87
2018-12-06T11:44:25.387Z,76.57
2018-12-06T11:46:55.263Z,78.03
2018-12-06T11:49:25.174Z,87.93
2018-12-06T11:51:55.188Z,85.33
2018-12-06T11:54:25.252Z,81.53
2018-12-06T11:56:55.243Z,87.60
2018-12-06T11:59:25.211Z,87.63
2018-12-06T12:01:55.162Z,90.33
2018-12-06T12:04:30.687Z,95.17
2018-12-06T12:07:00.610Z,94.93
2018-12-06T12:09:30.711Z,101.40
2018-12-06T12:12:00.694Z,97.53
2018-12-06T12:14:32.697Z,114.40
2018-12-06T12:17:02.783Z,109.23
2018-12-06T12:19:34.440Z,110.73
2018-12-06T12:22:04.658Z,118.80
2018-12-06T12:24:34.676Z,109.37
2018-12-06T12:27:04.585Z,116.87
2018-12-06T12:29:34.712Z,111.17
2018-12-06T12:32:04.991Z,124.20
2018-12-06T12:34:34.938Z,122.27
2018-12-06T12:37:05.257Z,115.93
2018-12-06T12:39:35.332Z,128.60
2018-12-06T12:42:05.356Z,123.03
2018-12-06T12:44:35.278Z,122.50
2018-12-06T12:47:05.821Z,134.10
2018-12-06T12:49:35.869Z,131.67
2018-12-06T12:52:05.778Z,124.60
2018-12-06T12:54:35.724Z,129.40
2018-12-06T12:57:05.687Z,138.00
2018-12-06T12:59:35.872Z,136.13
2018-12-06T13:02:06.156Z,146.87
2018-12-06T13:04:36.161Z,155.53
2018-12-06T13:07:11.147Z,147.87
2018-12-06T13:09:41.206Z,142.23
2018-12-06T13:12:11.337Z,138.73
2018-12-06T13:14:41.391Z,147.57
2018-12-06T13:17:11.252Z,143.07
2018-12-06T13:19:47.562Z,125.03
2018-12-06T13:22:17.663Z,138.63
2018-12-06T13:24:47.842Z,147.60
2018-12-06T13:27:17.687Z,146.43
2018-12-06T13:29:47.957Z,164.83
2018-12-06T13:32:18.184Z,151.50
2018-12-06T13:34:48.265Z,154.13
2018-12-06T13:37:18.429Z,149.20
2018-12-06T13:39:48.565Z,159.67
2018-12-06T13:42:23.581Z,151.80
2018-12-06T13:44:50.833Z,143.73
2018-12-06T13:47:20.940Z,150.20
2018-12-06T13:49:51.214Z,147.33
2018-12-06T13:52:21.227Z,145.73
2018-12-06T13:54:51.534Z,141.93
2018-12-06T13:57:21.605Z,130.20
2018-12-06T13:59:52.029Z,128.07
2018-12-06T14:02:22.396Z,126.83
2018-12-06T14:04:54.178Z,117.97
2018-12-06T14:07:24.247Z,107.73
2018-12-06T14:09:54.385Z,111.77
2018-12-06T14:12:24.504Z,103.37
2018-12-06T14:14:54.379Z,98.37
2018-12-06T14:17:24.395Z,91.93
2018-12-06T14:19:54.690Z,96.73
2018-12-06T14:22:24.825Z,91.73
2018-12-06T14:24:54.759Z,93.40
2018-12-06T14:27:24.752Z,85.13
2018-12-06T14:29:55.031Z,75.73
2018-12-06T14:32:25.216Z,77.30
2018-12-06T14:34:55.252Z,78.27
2018-12-06T14:37:25.369Z,76.43
2018-12-06T14:39:56.371Z,76.10
2018-12-06T14:42:26.387Z,66.70
2018-12-06T14:44:56.470Z,86.83
2018-12-06T14:47:27.881Z,79.63
2018-12-06T14:49:57.857Z,75.33
2018-12-06T14:52:27.950Z,72.73
2018-12-06T14:54:57.947Z,80.43
2018-12-06T14:57:28.128Z,78.87
2018-12-06T14:59:58.121Z,77.73
2018-12-06T15:02:28.300Z,75.77
2018-12-06T15:04:58.291Z,82.73
2018-12-06T15:07:28.413Z,77.00
2018-12-06T15:09:58.500Z,70.63
2018-12-06T15:13:16.099Z,75.23
2018-12-06T15:15:46.191Z,72.77
2018-12-06T15:18:16.212Z,72.83
2018-12-06T15:20:47.864Z,76.97
2018-12-06T15:23:18.710Z,73.07
2018-12-06T15:25:52.480Z,73.50
2018-12-06T15:28:24.484Z,78.87
2018-12-06T15:30:55.546Z,66.23
2018-12-06T15:33:25.710Z,81.83
2018-12-06T15:35:56.112Z,71.83
2018-12-06T15:38:27.267Z,73.47
2018-12-06T15:40:57.310Z,69.53
2018-12-06T15:43:27.327Z,79.77
2018-12-06T15:45:58.877Z,73.13
2018-12-06T15:48:28.931Z,71.53
2018-12-06T15:50:58.784Z,72.10
2018-12-06T15:53:28.800Z,70.97
2018-12-06T15:56:02.193Z,71.53
2018-12-06T15:58:34.722Z,68.43
2018-12-06T16:01:04.839Z,64.10
2018-12-06T16:03:36.340Z,70.53
2018-12-06T16:06:06.352Z,66.83
2018-12-06T16:08:37.846Z,73.27
2018-12-06T16:11:07.953Z,75.90
2018-12-06T16:13:38.868Z,74.13
2018-12-06T16:16:09.696Z,81.77
2018-12-06T16:18:41.143Z,77.70
2018-12-06T16:21:12.772Z,76.77
2018-12-06T16:23:46.546Z,71.67
2018-12-06T16:26:16.767Z,76.60
2018-12-06T16:28:46.910Z,74.77
2018-12-06T16:31:17.341Z,80.97
2018-12-06T16:33:47.581Z,72.47
2018-12-06T16:36:17.836Z,66.27
2018-12-06T16:41:54.224Z,76.70
2018-12-06T16:44:24.343Z,75.33
2018-12-06T16:46:54.337Z,75.00
2018-12-06T16:49:24.387Z,77.20
2018-12-06T16:51:54.564Z,78.70
2018-12-06T16:54:24.547Z,77.67
2018-12-06T16:56:54.733Z,83.53
2018-12-06T16:59:24.672Z,90.57
2018-12-06T17:01:54.918Z,82.70
2018-12-06T17:04:25.196Z,95.73
2018-12-06T17:06:55.213Z,87.83
2018-12-06T17:09:25.482Z,86.23
2018-12-06T17:11:55.550Z,89.00
2018-12-06T17:14:25.642Z,80.93
2018-12-06T17:16:55.656Z,87.13
2018-12-06T17:19:26.014Z,84.80
2018-12-06T17:21:56.177Z,95.10
2018-12-06T17:24:26.343Z,91.33
2018-12-06T17:26:56.356Z,95.70
2018-12-06T17:29:26.682Z,101.57
2018-12-06T17:31:56.857Z,103.83
2018-12-06T17:34:27.205Z,94.23
2018-12-06T17:36:57.268Z,100.03
2018-12-06T17:39:28.508Z,94.23
2018-12-06T17:41:58.610Z,87.20
2018-12-06T17:44:29.324Z,86.70
2018-12-06T17:47:01.301Z,93.20
2018-12-06T17:49:34.031Z,81.93
2018-12-06T17:52:04.046Z,81.10
2018-12-06T17:54:34.843Z,80.27
2018-12-06T17:57:04.857Z,77.33
2018-12-06T17:59:35.023Z,84.10
2018-12-06T18:02:06.425Z,78.00
2018-12-06T18:04:36.665Z,72.43
2018-12-06T18:07:06.927Z,74.27
2018-12-06T18:09:36.954Z,76.33
2018-12-06T18:12:07.072Z,73.07
2018-12-06T18:14:37.266Z,84.50
2018-12-06T18:17:07.271Z,76.37
2018-12-06T18:19:37.484Z,78.13
2018-12-06T18:22:07.584Z,88.77
2018-12-06T18:24:38.183Z,84.00
2018-12-06T18:27:08.218Z,82.17
2018-12-06T18:29:38.336Z,81.93
2018-12-06T18:32:08.370Z,80.80
2018-12-06T18:34:38.613Z,77.73
2018-12-06T18:37:10.326Z,81.23
2018-12-06T18:39:42.200Z,80.93
2018-12-06T18:42:13.885Z,79.37
2018-12-06T18:44:43.959Z,68.27
2018-12-06T18:47:14.147Z,75.53
2018-12-06T18:49:44.335Z,77.40
2018-12-06T18:52:14.481Z,81.13
2018-12-06T18:54:44.607Z,78.70
2018-12-06T18:57:14.654Z,84.50
2018-12-06T18:59:44.750Z,76.50
2018-12-06T19:02:14.783Z,76.07
2018-12-06T19:04:45.029Z,82.70
2018-12-06T19:07:14.976Z,78.43
2018-12-06T19:09:45.036Z,77.90
2018-12-06T19:12:16.390Z,73.80
2018-12-06T19:14:46.997Z,76.53
2018-12-06T19:17:17.131Z,73.73
2018-12-06T19:19:47.219Z,76.37
2018-12-06T19:22:17.412Z,75.60
2018-12-06T19:24:47.419Z,76.57
2018-12-06T19:27:17.462Z,72.40
2018-12-06T19:29:47.378Z,79.50
2018-12-06T19:32:17.368Z,80.87
2018-12-06T19:34:47.397Z,75.73
2018-12-06T19:37:17.586Z,85.57
2018-12-06T19:39:47.621Z,91.07
2018-12-06T19:42:18.826Z,89.43
2018-12-06T19:44:48.991Z,95.43
2018-12-06T19:47:19.009Z,99.93
2018-12-06T19:49:49.060Z,96.27
2018-12-06T19:52:21.176Z,107.73
2018-12-06T19:54:51.442Z,102.17
2018-12-06T19:57:21.490Z,120.53
2018-12-06T19:59:51.603Z,111.93
2018-12-06T20:02:21.730Z,120.57
2018-12-06T20:04:51.970Z,112.57
2018-12-06T20:07:24.001Z,126.73
2018-12-06T20:09:54.002Z,118.73
2018-12-06T20:12:24.714Z,125.67
2018-12-06T20:14:54.880Z,118.20
2018-12-06T20:17:25.090Z,116.10
2018-12-06T20:19:55.242Z,131.67
2018-12-06T20:22:25.466Z,116.97
2018-12-06T20:24:55.963Z,121.33
2018-12-06T20:27:26.910Z,120.83
2018-12-06T20:30:00.773Z,122.17
2018-12-06T20:32:31.176Z,123.17
2018-12-06T20:35:02.312Z,117.27
2018-12-06T20:37:32.370Z,116.50
2018-12-06T20:40:02.479Z,126.47
2018-12-06T20:42:33.644Z,118.73
2018-12-06T20:45:04.043Z,122.20
2018-12-06T20:50:34.902Z,111.97
2018-12-06T20:53:12.030Z,116.13
2018-12-06T20:55:50.140Z,113.77
2018-12-06T20:58:20.344Z,119.43
2018-12-06T21:07:07.904Z,107.43
2018-12-06T21:09:40.194Z,102.47
2018-12-06T21:12:19.722Z,99.57
2018-12-06T21:14:50.147Z,105.80
2018-12-06T21:17:20.180Z,102.27
2018-12-06T21:19:50.215Z,97.87
2018-12-06T21:22:21.158Z,97.77
2018-12-06T21:25:03.673Z,88.93
2018-12-06T21:27:33.726Z,92.00
2018-12-06T21:30:09.812Z,91.67
2018-12-06T21:33:01.861Z,92.10
2018-12-06T21:35:55.522Z,92.27
2018-12-06T21:38:29.078Z,88.97
2018-12-06T21:41:09.766Z,87.47
2018-12-06T21:43:53.861Z,92.53
2018-12-06T21:46:45.432Z,90.70
2018-12-06T21:52:29.949Z,88.17
2018-12-06T21:55:10.520Z,97.03
2018-12-06T21:57:47.070Z,87.67
2018-12-06T22:03:32.622Z,91.97
2018-12-06T22:06:08.465Z,87.80
2018-12-06T22:08:44.690Z,93.57
2018-12-06T22:17:26.278Z,96.60
2018-12-06T22:20:03.146Z,92.07
2018-12-06T22:22:38.641Z,99.93
2018-12-06T22:25:14.666Z,90.00
2018-12-06T22:27:56.682Z,92.70
2018-12-06T22:30:32.368Z,95.70
2018-12-06T22:33:15.996Z,94.83
2018-12-06T22:42:12.875Z,95.80
2018-12-06T22:44:49.426Z,93.80
2018-12-06T22:47:25.597Z,95.40
2018-12-06T22:50:01.252Z,91.60
2018-12-06T22:55:37.845Z,92.13
2018-12-06T22:58:24.171Z,86.53
2018-12-06T23:04:09.431Z,78.57
2018-12-06T23:09:55.331Z,75.17
2018-12-06T23:12:31.315Z,71.20
2018-12-06T23:24:35.797Z,82.87
2018-12-06T23:27:12.562Z,78.70
2018-12-06T23:29:53.379Z,93.13
2018-12-06T23:32:28.989Z,91.43
2018-12-06T23:38:11.930Z,90.43
2018-12-06T23:43:55.949Z,82.20
2018-12-06T23:56:12.371Z,79.33
